Time;durP1;ratioP1;P1;durP2;ratioP2;P2;SDS_P1;SDS_P2;PMS_P1;PMS_P2;Temp;Humidity;BMP_temperature;BMP_pressure;BME280_temperature;BME280_humidity;BME280_pressure;Samples;Min_cycle;Max_cycle;Signal;HPM_P1;HPM_P2
2022/09/15 00:01:05;;;;;;;907.03;850.13;;;13.70;99.90;;;;;;5017528;28;20465;-80
2022/09/15 00:03:32;;;;;;;906.30;849.23;;;13.60;99.90;;;;;;5017907;28;20453;-80
2022/09/15 00:05:59;;;;;;;904.73;847.83;;;13.50;99.90;;;;;;5018038;28;20605;-81
2022/09/15 00:08:26;;;;;;;903.63;846.93;;;13.50;99.90;;;;;;5018458;28;20449;-81
2022/09/15 00:10:56;;;;;;;910.63;853.93;;;13.30;99.90;;;;;;5017710;28;20496;-81
2022/09/15 00:13:23;;;;;;;900.60;844.10;;;13.20;99.90;;;;;;5018178;28;20460;-81
2022/09/15 00:15:52;;;;;;;900.97;844.37;;;13.10;99.90;;;;;;5017580;28;20461;-81
2022/09/15 00:18:18;;;;;;;899.07;843.23;;;13.00;99.90;;;;;;5017679;28;20464;-81
2022/09/15 00:20:46;;;;;;;899.03;843.83;;;13.10;99.90;;;;;;5017643;28;21008;-80
2022/09/15 00:23:15;;;;;;;896.53;841.23;;;13.10;99.90;;;;;;5017654;28;20449;-81
2022/09/15 00:25:44;;;;;;;896.20;840.80;;;13.00;99.90;;;;;;5018157;28;20460;-81
2022/09/15 00:28:11;;;;;;;909.87;853.53;;;12.90;99.90;;;;;;5018521;28;20830;-81
2022/09/15 00:30:41;;;;;;;903.60;847.90;;;12.90;99.90;;;;;;5018356;28;20485;-80
2022/09/15 00:33:09;;;;;;;909.53;853.47;;;12.80;99.90;;;;;;5017782;28;20654;-81
2022/09/15 00:35:38;;;;;;;899.83;843.93;;;12.80;99.90;;;;;;5018170;28;20457;-81
2022/09/15 00:38:05;;;;;;;900.80;845.10;;;12.70;99.90;;;;;;5018078;28;20774;-81
2022/09/15 00:40:32;;;;;;;899.40;844.00;;;12.70;99.90;;;;;;5017819;28;20837;-81
2022/09/15 00:42:59;;;;;;;891.87;836.57;;;12.70;99.90;;;;;;5017829;28;20450;-81
2022/09/15 00:45:26;;;;;;;885.10;830.30;;;12.60;99.90;;;;;;5018742;28;20453;-81
2022/09/15 00:47:52;;;;;;;889.23;834.53;;;12.60;99.90;;;;;;5018087;28;20453;-81
2022/09/15 00:50:21;;;;;;;900.90;846.03;;;12.80;99.90;;;;;;5021001;28;20463;-81
2022/09/15 00:52:52;;;;;;;895.57;840.63;;;12.60;99.90;;;;;;5021599;28;21017;-81
2022/09/15 00:55:22;;;;;;;888.70;833.60;;;12.70;99.90;;;;;;5021530;28;20910;-81
2022/09/15 00:57:53;;;;;;;888.60;833.60;;;12.50;99.90;;;;;;5021883;28;20460;-81
2022/09/15 01:00:23;;;;;;;893.70;838.60;;;12.60;99.90;;;;;;5021404;28;20452;-81
2022/09/15 01:02:50;;;;;;;895.90;840.73;;;12.50;99.90;;;;;;5021875;28;20484;-81
2022/09/15 01:05:25;;;;;;;890.23;835.03;;;12.50;99.90;;;;;;5022336;28;20457;-81
2022/09/15 01:07:56;;;;;;;882.00;827.30;;;12.60;99.90;;;;;;5021845;28;20449;-81
2022/09/15 01:10:25;;;;;;;883.60;828.80;;;12.60;99.90;;;;;;5020851;28;20445;-81
2022/09/15 01:12:54;;;;;;;884.83;829.53;;;12.60;99.90;;;;;;5021604;28;20449;-81
2022/09/15 01:15:24;;;;;;;877.73;822.33;;;12.70;99.90;;;;;;5020721;28;20464;-81
2022/09/15 01:18:04;;;;;;;891.90;835.83;;;12.80;99.90;;;;;;5021783;28;20910;-82
2022/09/15 01:21:02;;;;;;;896.70;840.30;;;12.80;99.90;;;;;;5021382;28;20495;-82
2022/09/15 01:24:16;;;;;;;900.20;842.40;;;13.10;99.90;;;;;;5021181;28;20463;-81
2022/09/15 01:26:57;;;;;;;892.97;835.17;;;13.10;99.90;;;;;;5021784;28;20847;-82
2022/09/15 01:29:54;;;;;;;899.60;841.00;;;13.10;99.90;;;;;;5021662;28;20460;-82
2022/09/15 01:35:20;;;;;;;900.80;841.60;;;13.10;99.90;;;;;;5021717;28;20528;-81
2022/09/15 01:37:53;;;;;;;899.37;839.87;;;13.10;99.90;;;;;;5001588;28;20442;-81
2022/09/15 01:40:23;;;;;;;902.17;842.47;;;13.00;99.90;;;;;;5003357;28;20472;-82
2022/09/15 01:42:52;;;;;;;901.60;841.60;;;13.00;99.90;;;;;;5021686;28;20461;-82
2022/09/15 01:45:25;;;;;;;903.10;842.70;;;12.90;99.90;;;;;;5021096;28;20453;-82
2022/09/15 01:47:54;;;;;;;903.40;842.80;;;12.80;99.90;;;;;;5021242;28;20433;-81
2022/09/15 01:50:24;;;;;;;916.20;855.00;;;12.80;99.90;;;;;;5020798;28;20544;-81
2022/09/15 01:52:57;;;;;;;918.60;857.00;;;12.60;99.90;;;;;;5020867;28;20488;-81
2022/09/15 01:55:30;;;;;;;918.43;856.63;;;12.60;99.90;;;;;;5020631;28;20942;-81
2022/09/15 01:57:57;;;;;;;924.33;862.33;;;12.50;99.90;;;;;;5021730;28;20469;-81
2022/09/15 02:00:26;;;;;;;923.40;861.37;;;12.40;99.90;;;;;;5020713;28;20945;-80
2022/09/15 02:02:57;;;;;;;921.03;859.03;;;12.30;99.90;;;;;;5021442;28;20453;-82
2022/09/15 02:05:29;;;;;;;925.43;863.33;;;12.10;99.90;;;;;;5020716;28;20450;-81
2022/09/15 02:08:04;;;;;;;922.50;860.53;;;11.80;99.90;;;;;;5021924;28;20445;-82
2022/09/15 02:10:37;;;;;;;931.30;869.30;;;11.80;99.90;;;;;;5020993;28;20568;-81
2022/09/15 02:13:11;;;;;;;922.83;860.93;;;11.80;99.90;;;;;;5020532;28;20453;-81
2022/09/15 02:15:45;;;;;;;924.03;862.37;;;11.70;99.90;;;;;;5020113;28;20438;-81
2022/09/15 02:18:15;;;;;;;924.17;862.57;;;11.50;99.90;;;;;;5020716;28;20488;-81
2022/09/15 02:20:48;;;;;;;923.87;862.47;;;11.40;99.90;;;;;;5020559;28;20469;-81
2022/09/15 02:23:20;;;;;;;927.57;866.30;;;11.40;99.90;;;;;;5020829;28;20453;-81
2022/09/15 02:25:50;;;;;;;920.10;859.30;;;11.40;99.90;;;;;;5020701;28;20867;-81
2022/09/15 02:28:22;;;;;;;914.10;853.60;;;11.40;99.90;;;;;;5021115;28;20453;-81
2022/09/15 02:30:55;;;;;;;920.33;859.83;;;11.30;99.90;;;;;;5020636;28;20477;-81
2022/09/15 02:33:25;;;;;;;914.27;853.57;;;11.40;99.90;;;;;;5020491;28;20985;-81
2022/09/15 02:35:52;;;;;;;919.33;858.10;;;11.40;99.90;;;;;;5020298;28;20532;-82
2022/09/15 02:38:20;;;;;;;926.77;865.17;;;11.30;99.90;;;;;;5020372;28;20457;-81
2022/09/15 02:40:47;;;;;;;926.07;864.47;;;11.20;99.90;;;;;;5020935;28;20923;-81
2022/09/15 02:43:18;;;;;;;921.40;859.60;;;11.10;99.90;;;;;;5020258;28;20489;-81
2022/09/15 02:45:45;;;;;;;923.30;861.70;;;11.20;99.90;;;;;;5019626;28;20529;-81
2022/09/15 02:48:13;;;;;;;925.50;864.20;;;11.10;99.90;;;;;;5020341;28;20449;-81
2022/09/15 02:50:41;;;;;;;930.20;868.93;;;11.00;99.90;;;;;;5020401;28;20506;-82
2022/09/15 02:53:08;;;;;;;924.43;863.43;;;11.10;99.90;;;;;;5020174;28;20465;-81
2022/09/15 02:55:35;;;;;;;922.13;861.40;;;11.00;99.90;;;;;;5020234;28;20449;-82
2022/09/15 02:58:02;;;;;;;916.30;856.00;;;11.00;99.90;;;;;;5020215;28;20483;-82
2022/09/15 03:00:29;;;;;;;923.57;862.97;;;10.90;99.90;;;;;;5020628;28;20548;-82
2022/09/15 03:02:57;;;;;;;913.90;853.60;;;10.90;99.90;;;;;;5020156;28;20885;-82
2022/09/15 03:05:27;;;;;;;912.30;852.20;;;11.10;99.90;;;;;;5019584;28;20453;-81
2022/09/15 03:07:54;;;;;;;914.13;854.13;;;11.00;99.90;;;;;;5020300;28;20844;-81
2022/09/15 03:10:23;;;;;;;923.80;863.43;;;11.00;99.90;;;;;;5020176;28;20445;-82
2022/09/15 03:12:52;;;;;;;919.73;859.53;;;11.10;99.90;;;;;;5018996;28;20847;-82
2022/09/15 03:15:21;;;;;;;912.00;852.40;;;10.90;99.90;;;;;;5020336;28;20453;-82
2022/09/15 03:17:49;;;;;;;909.10;849.20;;;11.00;99.90;;;;;;5019816;28;20455;-82
2022/09/15 03:20:20;;;;;;;915.97;855.80;;;11.00;99.90;;;;;;5020110;28;20460;-81
2022/09/15 03:22:49;;;;;;;914.10;854.00;;;10.90;99.90;;;;;;5020424;28;20453;-81
2022/09/15 03:25:17;;;;;;;909.70;850.27;;;10.90;99.90;;;;;;5019562;28;20455;-82
2022/09/15 03:27:44;;;;;;;908.03;848.23;;;10.90;99.90;;;;;;5020645;28;20517;-82
2022/09/15 03:30:12;;;;;;;906.93;847.03;;;11.10;99.90;;;;;;5020371;28;20446;-82
2022/09/15 03:32:38;;;;;;;918.77;858.13;;;11.10;99.90;;;;;;5020545;28;20473;-81
2022/09/15 03:35:06;;;;;;;910.73;850.57;;;11.10;99.90;;;;;;5019673;28;20458;-81
2022/09/15 03:37:34;;;;;;;904.00;844.10;;;11.20;99.90;;;;;;5020179;28;20452;-82
2022/09/15 03:40:03;;;;;;;912.13;851.93;;;11.30;99.90;;;;;;5020170;28;20457;-81
2022/09/15 03:42:31;;;;;;;911.57;851.17;;;11.30;99.90;;;;;;5020097;28;20545;-82
2022/09/15 03:44:58;;;;;;;905.10;844.80;;;11.30;99.90;;;;;;5019721;28;20461;-81
2022/09/15 03:47:25;;;;;;;905.80;845.90;;;11.40;99.90;;;;;;5019679;28;20448;-81
2022/09/15 03:49:52;;;;;;;912.07;851.17;;;11.60;99.90;;;;;;5019500;28;20525;-81
2022/09/15 03:52:18;;;;;;;906.33;845.73;;;11.60;99.90;;;;;;5019230;28;20481;-81
2022/09/15 03:54:45;;;;;;;912.87;851.77;;;11.70;99.90;;;;;;5019403;28;20453;-81
2022/09/15 03:57:13;;;;;;;906.23;845.03;;;11.80;99.90;;;;;;5019441;28;20549;-81
2022/09/15 03:59:40;;;;;;;909.00;847.80;;;11.70;99.90;;;;;;5020163;28;20457;-81
2022/09/15 04:02:07;;;;;;;900.70;839.70;;;11.70;99.90;;;;;;5019858;28;20473;-81
2022/09/15 04:04:34;;;;;;;899.60;838.30;;;11.90;99.90;;;;;;5019711;28;20453;-77
2022/09/15 04:07:00;;;;;;;896.13;835.30;;;12.00;99.90;;;;;;5014177;28;20460;-81
2022/09/15 04:09:28;;;;;;;896.07;835.53;;;12.10;99.90;;;;;;5019300;28;20445;-81
2022/09/15 04:11:54;;;;;;;886.87;826.67;;;12.40;99.90;;;;;;5017682;28;20477;-81
2022/09/15 04:14:22;;;;;;;889.70;828.80;;;12.60;99.90;;;;;;5013597;28;20464;-82
2022/09/15 04:16:49;;;;;;;890.73;829.13;;;12.70;99.90;;;;;;5016212;28;20449;-77
2022/09/15 04:19:16;;;;;;;888.37;826.77;;;12.70;99.90;;;;;;5016518;28;20515;-79
2022/09/15 04:21:44;;;;;;;891.97;830.40;;;12.70;99.90;;;;;;5020583;28;20473;-83
2022/09/15 04:27:18;;;;;;;892.90;830.70;;;13.10;99.90;;;;;;4891177;28;20479;-82
2022/09/15 04:29:50;;;;;;;887.77;826.07;;;13.00;99.90;;;;;;5042348;28;20428;-81
2022/09/15 04:32:17;;;;;;;906.67;844.70;;;13.00;99.90;;;;;;5037657;28;20491;-79
2022/09/15 04:34:43;;;;;;;895.17;833.33;;;13.00;99.90;;;;;;5033212;28;20509;-79
2022/09/15 04:37:11;;;;;;;911.30;848.40;;;13.00;99.90;;;;;;5025852;28;20452;-79
2022/09/15 04:39:38;;;;;;;902.77;840.20;;;13.00;99.90;;;;;;5019077;28;20946;-82
2022/09/15 04:42:05;;;;;;;900.20;837.30;;;13.10;99.90;;;;;;5022159;28;20475;-81
2022/09/15 04:44:32;;;;;;;914.93;851.33;;;13.20;99.90;;;;;;5021857;28;20452;-82
2022/09/15 04:47:00;;;;;;;899.73;836.00;;;13.10;99.90;;;;;;5021466;28;20457;-82
2022/09/15 04:49:28;;;;;;;904.00;840.30;;;13.20;99.90;;;;;;5021087;28;20495;-82
2022/09/15 04:51:55;;;;;;;903.80;840.20;;;13.20;99.90;;;;;;5021634;28;20516;-82
2022/09/15 04:54:22;;;;;;;899.13;835.53;;;13.20;99.90;;;;;;5020929;28;20521;-81
2022/09/15 04:59:37;;;;;;;905.63;843.03;;;13.10;99.90;;;;;;5015277;28;20460;-82
2022/09/15 05:02:10;;;;;;;889.57;827.67;;;13.20;99.90;;;;;;5021838;28;21048;-82
2022/09/15 05:04:43;;;;;;;899.20;837.87;;;13.10;99.90;;;;;;5022103;28;20457;-82
2022/09/15 05:07:17;;;;;;;895.23;833.43;;;13.10;99.90;;;;;;5019711;28;20452;-82
2022/09/15 05:09:43;;;;;;;896.37;834.67;;;13.10;99.90;;;;;;5020288;28;20535;-82
2022/09/15 05:12:16;;;;;;;910.67;847.67;;;13.20;99.90;;;;;;5022552;28;20481;-82
2022/09/15 05:14:44;;;;;;;908.10;845.30;;;13.20;99.90;;;;;;5021030;28;20477;-82
2022/09/15 05:17:13;;;;;;;904.60;841.93;;;13.20;99.90;;;;;;5021083;28;20453;-80
2022/09/15 05:19:39;;;;;;;903.80;841.30;;;13.10;99.90;;;;;;5020450;28;20449;-82
2022/09/15 05:22:06;;;;;;;900.00;837.83;;;13.10;99.90;;;;;;5020472;28;20481;-82
2022/09/15 05:24:33;;;;;;;894.13;832.73;;;13.10;99.90;;;;;;5020331;28;20462;-82
2022/09/15 05:27:00;;;;;;;864.77;803.67;;;13.10;99.90;;;;;;5020742;28;20982;-82
2022/09/15 05:29:26;;;;;;;871.83;810.93;;;13.20;99.90;;;;;;5020348;28;20449;-82
2022/09/15 05:31:53;;;;;;;874.83;814.37;;;13.20;99.90;;;;;;5021411;28;20487;-82
2022/09/15 05:34:21;;;;;;;862.87;802.37;;;13.20;99.90;;;;;;5020793;28;20545;-82
2022/09/15 05:36:54;;;;;;;863.60;803.10;;;13.10;99.90;;;;;;5021635;28;20449;-82
2022/09/15 05:39:21;;;;;;;840.20;780.40;;;13.20;99.90;;;;;;5020559;28;20528;-81
2022/09/15 05:41:48;;;;;;;860.97;800.77;;;13.10;99.90;;;;;;5022004;28;20473;-82
2022/09/15 05:44:15;;;;;;;872.67;812.87;;;13.10;99.90;;;;;;5020458;28;20520;-82
2022/09/15 05:46:41;;;;;;;857.70;797.50;;;13.10;99.90;;;;;;5022054;28;20954;-83
2022/09/15 05:49:10;;;;;;;851.60;791.03;;;13.00;99.90;;;;;;5022510;28;20465;-83
2022/09/15 05:51:38;;;;;;;847.50;787.17;;;13.00;99.90;;;;;;5021096;28;20480;-82
2022/09/15 05:54:06;;;;;;;847.80;788.00;;;13.00;99.90;;;;;;5022322;28;20476;-81
2022/09/15 05:56:33;;;;;;;855.33;795.13;;;13.20;99.90;;;;;;5021268;28;20504;-83
2022/09/15 05:58:59;;;;;;;842.07;782.47;;;13.10;99.90;;;;;;5021427;28;20504;-83
2022/09/15 06:01:27;;;;;;;853.90;793.80;;;13.20;99.90;;;;;;5022140;28;20481;-83
2022/09/15 06:03:56;;;;;;;843.40;783.60;;;13.10;99.90;;;;;;5021992;28;20449;-82
2022/09/15 06:06:24;;;;;;;848.20;789.00;;;13.20;99.90;;;;;;5021495;28;20461;-83
2022/09/15 06:08:54;;;;;;;856.97;797.97;;;13.30;99.90;;;;;;5021516;28;20457;-82
2022/09/15 06:11:23;;;;;;;845.40;786.27;;;13.30;99.90;;;;;;5021689;28;20505;-83
2022/09/15 06:13:50;;;;;;;854.10;795.77;;;13.50;99.90;;;;;;5021662;28;21017;-83
2022/09/15 06:16:19;;;;;;;863.60;804.43;;;13.50;99.90;;;;;;5021752;28;20463;-83
2022/09/15 06:18:47;;;;;;;854.17;795.30;;;13.60;99.90;;;;;;5021324;28;20458;-80
2022/09/15 06:21:19;;;;;;;865.47;806.07;;;13.70;99.90;;;;;;5020876;28;20473;-83
2022/09/15 06:23:46;;;;;;;860.20;801.17;;;13.80;99.90;;;;;;5021279;28;20438;-82
2022/09/15 06:26:16;;;;;;;848.37;788.87;;;13.80;99.90;;;;;;5021139;28;20832;-83
2022/09/15 06:28:48;;;;;;;834.20;774.20;;;13.90;99.90;;;;;;5021513;28;20544;-83
2022/09/15 06:31:15;;;;;;;825.73;767.17;;;13.90;99.90;;;;;;5021093;28;20473;-83
2022/09/15 06:33:43;;;;;;;839.93;781.03;;;14.00;99.90;;;;;;5019183;28;20473;-82
2022/09/15 06:36:10;;;;;;;845.37;785.60;;;14.10;99.90;;;;;;5020590;28;20488;-83
2022/09/15 06:38:38;;;;;;;845.23;787.53;;;14.30;99.90;;;;;;5020774;28;20457;-83
2022/09/15 06:41:04;;;;;;;837.27;779.77;;;14.20;99.90;;;;;;5020772;28;20473;-83
2022/09/15 06:43:33;;;;;;;799.43;743.83;;;14.30;99.90;;;;;;5020373;28;20457;-83
2022/09/15 06:46:04;;;;;;;838.07;780.90;;;14.20;99.90;;;;;;5020668;28;20453;-83
2022/09/15 06:48:32;;;;;;;779.93;725.63;;;14.40;99.90;;;;;;5020894;28;20465;-83
2022/09/15 06:50:59;;;;;;;777.27;722.87;;;14.50;99.90;;;;;;5020490;28;20484;-83
2022/09/15 06:53:27;;;;;;;788.73;734.43;;;14.50;99.90;;;;;;5020438;28;20485;-83
2022/09/15 06:55:54;;;;;;;759.90;706.70;;;14.50;99.90;;;;;;5021205;28;20455;-82
2022/09/15 06:58:21;;;;;;;756.60;704.07;;;14.50;99.90;;;;;;5020534;28;20459;-82
2022/09/15 07:00:49;;;;;;;724.03;673.80;;;14.60;99.90;;;;;;5020417;28;20473;-82
2022/09/15 07:03:15;;;;;;;745.43;693.77;;;14.60;99.90;;;;;;5020498;28;20449;-83
2022/09/15 07:05:45;;;;;;;771.80;718.40;;;14.70;99.90;;;;;;5020176;28;20460;-82
2022/09/15 07:08:11;;;;;;;751.53;700.33;;;14.80;99.90;;;;;;5020701;28;20462;-82
2022/09/15 07:10:38;;;;;;;727.87;678.10;;;14.90;99.90;;;;;;5019881;28;20477;-82
2022/09/15 07:13:05;;;;;;;707.73;660.20;;;14.90;99.90;;;;;;5020208;28;20884;-82
2022/09/15 07:15:32;;;;;;;748.77;697.97;;;15.00;99.90;;;;;;5019439;28;20464;-82
2022/09/15 07:18:00;;;;;;;736.20;684.67;;;15.20;99.90;;;;;;5020611;28;20449;-82
2022/09/15 07:20:27;;;;;;;713.23;663.30;;;15.30;99.90;;;;;;5019848;28;21036;-82
2022/09/15 07:22:53;;;;;;;723.67;673.17;;;15.30;99.90;;;;;;5020687;28;20452;-82
2022/09/15 07:25:20;;;;;;;741.30;692.30;;;15.40;99.90;;;;;;5019684;28;20449;-82
2022/09/15 07:27:47;;;;;;;745.33;695.53;;;15.40;99.90;;;;;;5019328;28;20462;-83
2022/09/15 07:30:14;;;;;;;724.73;678.23;;;15.50;99.90;;;;;;5019907;28;20459;-84
2022/09/15 07:32:41;;;;;;;736.70;689.50;;;15.50;99.90;;;;;;5020574;28;20504;-83
2022/09/15 07:35:09;;;;;;;744.77;697.00;;;15.50;99.90;;;;;;5019344;28;20454;-82
2022/09/15 07:37:36;;;;;;;731.83;685.03;;;15.50;99.90;;;;;;5019349;28;20449;-83
2022/09/15 07:40:03;;;;;;;705.83;662.23;;;15.60;99.90;;;;;;5019875;28;20455;-82
2022/09/15 07:42:31;;;;;;;708.90;663.70;;;15.60;99.90;;;;;;5019874;28;20922;-82
2022/09/15 07:44:58;;;;;;;720.30;677.70;;;15.70;99.90;;;;;;5019485;28;20552;-80
2022/09/15 07:47:24;;;;;;;727.20;683.67;;;15.70;99.90;;;;;;5019443;28;20455;-83
2022/09/15 07:49:51;;;;;;;739.30;693.17;;;15.60;99.90;;;;;;5020525;28;20450;-83
2022/09/15 07:52:19;;;;;;;730.40;686.30;;;15.70;99.90;;;;;;5019110;28;20989;-80
2022/09/15 07:54:46;;;;;;;703.70;662.40;;;15.80;99.90;;;;;;5018847;28;20455;-83
2022/09/15 07:57:13;;;;;;;688.37;648.67;;;15.90;99.90;;;;;;5019320;28;20464;-82
2022/09/15 07:59:39;;;;;;;673.77;636.07;;;15.90;99.90;;;;;;5019105;28;20455;-82
2022/09/15 08:02:06;;;;;;;614.63;582.33;;;16.10;99.90;;;;;;5019736;28;20486;-82
2022/09/15 08:04:33;;;;;;;682.93;644.83;;;16.10;99.90;;;;;;5019248;28;20460;-82
2022/09/15 08:07:00;;;;;;;614.57;582.40;;;16.30;99.90;;;;;;5019492;28;20467;-82
2022/09/15 08:09:28;;;;;;;586.53;556.83;;;16.50;99.90;;;;;;5019122;28;20455;-83
2022/09/15 08:11:54;;;;;;;611.47;577.70;;;16.60;99.90;;;;;;5019085;28;20471;-83
2022/09/15 08:14:21;;;;;;;612.50;580.00;;;16.70;99.90;;;;;;5019128;28;20489;-82
2022/09/15 08:16:48;;;;;;;575.10;544.87;;;16.70;99.90;;;;;;5018689;28;20456;-83
2022/09/15 08:19:14;;;;;;;577.87;548.47;;;16.60;99.90;;;;;;5018690;28;20460;-82
2022/09/15 08:21:41;;;;;;;573.23;545.57;;;16.60;99.90;;;;;;5018555;28;20482;-83
2022/09/15 08:24:09;;;;;;;553.47;527.07;;;16.40;99.90;;;;;;5018961;28;20448;-82
2022/09/15 08:26:37;;;;;;;676.30;641.67;;;16.40;99.90;;;;;;5018607;28;20457;-83
2022/09/15 08:29:04;;;;;;;598.93;570.37;;;16.60;99.90;;;;;;5018065;28;20489;-83
2022/09/15 08:31:31;;;;;;;568.53;541.97;;;16.70;99.90;;;;;;5017915;28;20481;-83
2022/09/15 08:34:02;;;;;;;542.67;518.10;;;16.70;99.90;;;;;;5019158;28;20477;-84
2022/09/15 08:36:30;;;;;;;538.33;514.33;;;16.60;99.90;;;;;;5018500;28;20457;-82
2022/09/15 08:38:57;;;;;;;504.30;481.50;;;16.70;99.90;;;;;;5017528;28;20457;-82
2022/09/15 08:41:27;;;;;;;481.13;459.60;;;16.90;99.90;;;;;;5018290;28;20836;-82
2022/09/15 08:44:01;;;;;;;462.50;442.37;;;17.10;99.90;;;;;;5017867;28;20957;-82
2022/09/15 08:46:36;;;;;;;449.47;430.50;;;17.20;99.90;;;;;;5018138;28;20830;-82
2022/09/15 08:49:08;;;;;;;437.33;419.23;;;17.30;99.90;;;;;;5018560;28;20440;-82
2022/09/15 08:51:41;;;;;;;397.30;380.80;;;17.80;99.90;;;;;;5018842;28;20486;-82
2022/09/15 08:54:16;;;;;;;371.17;355.97;;;18.00;99.90;;;;;;5019758;28;20472;-83
2022/09/15 08:56:44;;;;;;;371.57;356.30;;;18.10;99.90;;;;;;5018580;28;20445;-82
2022/09/15 08:59:15;;;;;;;328.50;315.30;;;18.20;99.90;;;;;;5017748;28;20510;-82
2022/09/15 09:01:52;;;;;;;293.07;281.43;;;18.40;99.90;;;;;;5018139;28;20898;-83
2022/09/15 09:04:45;;;;;;;265.43;255.03;;;18.60;99.90;;;;;;5018104;28;20451;-82
2022/09/15 09:07:26;;;;;;;268.23;258.23;;;18.40;99.90;;;;;;5012037;28;20835;-82
2022/09/15 09:09:58;;;;;;;234.50;225.90;;;18.40;99.90;;;;;;5018520;28;20455;-82
2022/09/15 09:12:52;;;;;;;202.03;194.73;;;18.60;99.90;;;;;;5020772;28;21010;-83
2022/09/15 09:15:33;;;;;;;188.10;181.50;;;18.50;99.90;;;;;;5021730;28;20460;-83
2022/09/15 09:18:21;;;;;;;162.83;157.13;;;18.80;99.90;;;;;;5021564;28;20452;-83
2022/09/15 09:20:57;;;;;;;151.70;146.40;;;18.90;99.90;;;;;;5022095;28;20480;-83
2022/09/15 09:23:28;;;;;;;139.77;134.97;;;19.40;99.80;;;;;;5021782;28;20453;-82
2022/09/15 09:25:56;;;;;;;130.93;126.53;;;19.20;97.30;;;;;;5021792;28;20487;-82
2022/09/15 09:28:30;;;;;;;110.03;106.23;;;18.90;98.00;;;;;;5021152;28;20464;-82
2022/09/15 09:31:05;;;;;;;96.77;93.50;;;18.90;96.50;;;;;;5021027;28;20489;-82
2022/09/15 09:33:41;;;;;;;68.13;65.73;;;19.00;98.30;;;;;;5021300;28;20546;-82
2022/09/15 09:36:10;;;;;;;52.43;50.43;;;18.50;95.90;;;;;;5021206;28;20454;-82
2022/09/15 09:38:42;;;;;;;52.43;50.53;;;18.40;97.90;;;;;;5018960;28;20547;-81
2022/09/15 09:41:13;;;;;;;38.23;36.83;;;18.50;98.90;;;;;;5020223;28;20605;-82
2022/09/15 09:43:41;;;;;;;33.60;32.03;;;18.40;98.10;;;;;;5021943;28;20467;-81
2022/09/15 09:46:15;;;;;;;27.77;26.67;;;18.50;96.90;;;;;;5020500;28;20460;-82
2022/09/15 09:48:46;;;;;;;27.33;26.23;;;18.60;96.20;;;;;;5021291;28;20517;-84
2022/09/15 09:51:35;;;;;;;27.73;26.63;;;18.90;96.60;;;;;;5023434;28;20473;-84
2022/09/15 09:54:10;;;;;;;18.88;17.98;;;19.20;96.70;;;;;;5022691;28;20459;-83
2022/09/15 09:56:37;;;;;;;19.00;18.20;;;19.40;95.70;;;;;;5021535;28;20184;-81
2022/09/15 09:59:04;;;;;;;16.33;15.60;;;19.20;94.80;;;;;;5021002;28;20965;-83
2022/09/15 10:01:32;;;;;;;16.43;15.63;;;19.30;92.80;;;;;;5020305;28;20480;-82
2022/09/15 10:04:16;;;;;;;15.27;14.57;;;19.20;95.50;;;;;;5020378;28;20456;-83
2022/09/15 10:06:43;;;;;;;12.10;11.50;;;19.10;95.10;;;;;;5020599;28;20459;-83
2022/09/15 10:09:15;;;;;;;10.70;10.10;;;19.10;94.70;;;;;;5020875;28;20813;-83
2022/09/15 10:11:44;;;;;;;9.17;8.67;;;19.00;94.70;;;;;;5021170;28;20481;-83
2022/09/15 10:14:21;;;;;;;9.50;8.90;;;19.00;94.70;;;;;;5020599;28;20544;-81
2022/09/15 10:17:05;;;;;;;7.70;7.20;;;18.90;94.60;;;;;;5020766;28;20463;-83
2022/09/15 10:19:37;;;;;;;7.40;6.90;;;19.00;94.70;;;;;;5020431;28;20463;-83
2022/09/15 10:22:04;;;;;;;8.10;7.60;;;19.00;94.70;;;;;;5020327;28;20504;-83
2022/09/15 10:24:34;;;;;;;6.97;6.47;;;18.80;94.60;;;;;;5019795;28;20449;-82
2022/09/15 10:27:14;;;;;;;6.20;5.80;;;18.90;94.60;;;;;;5020109;28;20462;-83
2022/09/15 10:29:41;;;;;;;6.10;5.70;;;18.90;94.20;;;;;;5020746;28;20493;-85
2022/09/15 10:32:23;;;;;;;6.73;6.23;;;19.30;93.10;;;;;;5020448;28;20481;-83
2022/09/15 10:35:00;;;;;;;6.30;5.90;;;19.60;92.40;;;;;;5020644;28;20487;-83
2022/09/15 10:37:31;;;;;;;5.60;5.20;;;19.80;91.20;;;;;;5020622;28;20521;-83
2022/09/15 10:39:59;;;;;;;5.30;4.90;;;19.90;92.40;;;;;;5021122;28;20875;-83
2022/09/15 10:42:49;;;;;;;5.27;4.87;;;19.90;90.20;;;;;;5020362;28;20475;-83
2022/09/15 10:45:37;;;;;;;5.07;4.67;;;20.20;90.90;;;;;;5020049;28;20448;-83
2022/09/15 10:48:18;;;;;;;3.93;3.53;;;20.80;90.60;;;;;;5019901;28;20441;-83
2022/09/15 10:50:54;;;;;;;3.57;3.20;;;20.50;89.50;;;;;;5021410;28;20475;-83
2022/09/15 10:53:37;;;;;;;3.60;3.20;;;20.80;86.80;;;;;;5019455;28;21007;-83
2022/09/15 10:56:16;;;;;;;3.40;2.43;;;20.80;88.00;;;;;;5019787;28;20463;-83
2022/09/15 10:58:54;;;;;;;3.20;2.03;;;21.10;86.00;;;;;;5019815;28;20441;-83
2022/09/15 11:01:39;;;;;;;3.20;1.60;;;21.00;87.00;;;;;;5019835;28;20484;-83
2022/09/15 11:04:31;;;;;;;3.00;1.23;;;20.70;81.10;;;;;;5019738;28;20452;-84
2022/09/15 11:07:07;;;;;;;3.00;1.20;;;20.40;82.80;;;;;;5019929;28;20463;-83
2022/09/15 11:09:37;;;;;;;3.20;1.63;;;20.10;86.20;;;;;;5019688;28;20455;-83
2022/09/15 11:12:22;;;;;;;2.90;0.90;;;20.10;81.70;;;;;;5019612;28;20484;-83
2022/09/15 11:15:01;;;;;;;3.10;1.10;;;20.00;78.20;;;;;;5019599;28;20480;-83
2022/09/15 11:17:40;;;;;;;3.00;0.80;;;20.10;84.00;;;;;;5019509;28;20472;-84
2022/09/15 11:20:28;;;;;;;2.93;0.87;;;20.30;82.90;;;;;;5019764;28;20483;-84
2022/09/15 11:23:03;;;;;;;3.00;1.13;;;20.40;82.00;;;;;;5019945;28;20460;-84
2022/09/15 11:25:34;;;;;;;2.97;0.80;;;20.40;83.10;;;;;;5019153;28;20448;-84
2022/09/15 11:28:08;;;;;;;3.20;1.43;;;20.50;80.50;;;;;;5018944;28;20971;-84
2022/09/15 11:30:41;;;;;;;2.97;0.70;;;20.50;80.00;;;;;;5019257;28;20506;-83
2022/09/15 11:33:15;;;;;;;2.90;0.70;;;20.50;82.90;;;;;;5019528;28;20840;-84
2022/09/15 11:35:47;;;;;;;2.93;0.70;;;19.80;80.60;;;;;;5016910;28;20479;-83
2022/09/15 11:38:26;;;;;;;6.60;1.47;;;20.00;80.80;;;;;;5019246;28;20462;-85
2022/09/15 11:40:58;;;;;;;3.00;0.80;;;19.50;82.80;;;;;;5019362;28;20479;-84
2022/09/15 11:43:32;;;;;;;3.00;0.60;;;19.50;79.60;;;;;;5019360;28;20459;-84
2022/09/15 11:46:01;;;;;;;3.00;0.70;;;19.40;78.10;;;;;;5019381;28;20464;-84
2022/09/15 11:48:33;;;;;;;3.00;0.70;;;19.50;78.80;;;;;;5018772;28;20455;-84
2022/09/15 11:51:03;;;;;;;3.00;0.70;;;19.50;82.30;;;;;;5018610;28;20497;-83
2022/09/15 11:53:35;;;;;;;3.00;0.60;;;19.50;77.20;;;;;;5018365;28;20458;-84
2022/09/15 11:56:12;;;;;;;3.03;0.70;;;19.50;77.70;;;;;;5001703;28;20879;-84
2022/09/15 11:58:55;;;;;;;3.00;0.70;;;19.50;81.90;;;;;;5018655;28;20943;-84
2022/09/15 12:01:24;;;;;;;3.00;0.70;;;19.80;79.00;;;;;;5019079;28;20478;-84
2022/09/15 12:03:55;;;;;;;3.00;0.80;;;19.60;78.60;;;;;;5019197;28;20455;-84
2022/09/15 12:06:30;;;;;;;3.00;0.60;;;19.70;76.20;;;;;;5019329;28;20903;-84
2022/09/15 12:08:59;;;;;;;3.20;1.00;;;19.90;78.00;;;;;;5019310;28;20466;-84
2022/09/15 12:11:29;;;;;;;3.00;0.60;;;20.10;73.70;;;;;;5018768;28;20995;-84
2022/09/15 12:13:57;;;;;;;3.30;1.57;;;20.30;74.10;;;;;;5019400;28;20981;-84
2022/09/15 12:16:25;;;;;;;3.10;0.80;;;20.30;74.10;;;;;;5019057;28;20459;-84
2022/09/15 12:18:56;;;;;;;2.97;0.73;;;20.70;70.70;;;;;;5019393;28;20556;-84
2022/09/15 12:21:34;;;;;;;3.00;0.70;;;21.00;71.00;;;;;;5020041;28;20479;-84
2022/09/15 12:24:09;;;;;;;3.10;0.60;;;21.30;70.90;;;;;;5019810;28;20870;-81
2022/09/15 12:26:36;;;;;;;3.20;0.87;;;21.30;69.20;;;;;;5020413;28;20460;-84
2022/09/15 12:29:04;;;;;;;3.13;0.80;;;20.90;62.40;;;;;;5019978;28;20950;-84
2022/09/15 12:31:36;;;;;;;18.63;3.03;;;20.90;68.10;;;;;;5020056;28;20484;-84
2022/09/15 12:34:05;;;;;;;3.10;0.60;;;20.60;69.50;;;;;;5019561;28;20527;-84
2022/09/15 12:36:42;;;;;;;3.07;0.60;;;20.10;68.90;;;;;;5019765;28;20983;-84
2022/09/15 12:39:26;;;;;;;3.40;1.07;;;19.60;71.60;;;;;;5019364;28;20456;-84
2022/09/15 12:42:14;;;;;;;3.10;0.60;;;19.50;73.30;;;;;;5019232;28;20474;-84